This is the latest recevied weather packets stored in our database for station/object KC4JY. If no packets are shown the sender has not sent any weather packets the latest 10 day(s).
| Time | Temp. | Humidity | Pressure | Rain* | Wind** | Luminosity | Snow |
|---|---|---|---|---|---|---|---|
| 1777606213 | 13.33° C | 91% | 1011.4 hPa | 0 mm | - | - | - |
| 1777605311 | 13.89° C | 91% | 1011.3 hPa | 0 mm | - | - | - |
| 1777604409 | 13.89° C | 91% | 1011.2 hPa | 0 mm | - | - | - |
| 1777603557 | 14.44° C | 91% | 1011.1 hPa | 0 mm | - | - | - |
| 1777602648 | 14.44° C | 91% | 1011.2 hPa | 0 mm | - | - | - |
| 1777600837 | 14.44° C | 90% | 1010.9 hPa | 0 mm | - | - | - |
| 1777583724 | 20.56° C | 67% | 1008.9 hPa | 0 mm | - | - | - |
| 1777580148 | 21.67° C | 63% | 1008.9 hPa | 0 mm | - | - | - |
| 1777579246 | 21.11° C | 65% | 1008.9 hPa | 0 mm | - | - | - |
| 1777577448 | 20.56° C | 67% | 1008.9 hPa | 0 mm | - | - | - |
| 1777576541 | 20.56° C | 71% | 1009.1 hPa | 0 mm | - | - | - |
| 1777573836 | 18.33° C | 80% | 1008.8 hPa | 0 mm | - | - | - |
| 1777570255 | 17.78° C | 86% | 1008.8 hPa | 0.25 mm | - | - | - |
| 1777566614 | 16.11° C | 88% | 1010.2 hPa | 0.51 mm | - | - | - |
| 1777564856 | 16.11° C | 88% | 1010.3 hPa | 0.25 mm | - | - | - |
| 1777562119 | 16.11° C | 87% | 1010.7 hPa | 0.25 mm | - | - | - |
| 1777560371 | 16.67° C | 84% | 1010.8 hPa | 0 mm | - | - | - |
| 1777558545 | 16.67° C | 83% | 1009 hPa | 0 mm | - | - | - |
| 1777557645 | 16.67° C | 85% | 1008.2 hPa | 0 mm | - | - | - |
| 1777556741 | 16.67° C | 85% | 1007.9 hPa | 0 mm | - | - | - |
| 1777554951 | 16.11° C | 88% | 1008.1 hPa | 0 mm | - | - | - |
| 1777552231 | 16.11° C | 92% | 1008.3 hPa | 0 mm | - | - | - |
| 1777551323 | 16.11° C | 92% | 1008.6 hPa | 0 mm | - | - | - |
| 1777547720 | 16.11° C | 94% | 1008.3 hPa | 0 mm | - | - | - |
| 1777545007 | 16.11° C | 94% | 1008.1 hPa | 0 mm | - | - | - |
* Rain latest hour (hover to see other rain measurements)
** Current wind speed in m/s (hover to see current wind gust speed)